Nearby METAR Reports

 

KBAX - Bad Axe, Michigan, USA
Distance from station: ESE 22mi, 35km
Updated: Sat, 19-Sep-2020 8:15pm EDT
Clear
Clear
 Wind from calm
Wind: Calm
Temperature: 48°F , 9°C
Dew Point: 36°F , 2°C
Humidity: 62%
Barometer: 30.36 inHg , 1028.1 hPa
Clouds: Clear
Visibility: 10 miles , 16 km
2020/09/20 00:15 KBAX 200015Z AUTO 00000KT 10SM CLR 09/02 A3036 RMK AO2 T00910020
KFNT - Flint, Michigan, USA
Distance from station: SSW 68mi, 109km
Updated: Sat, 19-Sep-2020 7:53pm EDT
Clear
Clear
 Wind from calm
Wind: Calm
Temperature: 54°F , 12°C
Dew Point: 34°F , 1°C
Humidity: 47%
Barometer: 30.35 inHg , 1027.8 hPa
Clouds: Clear
Visibility: 10 miles , 16 km
2020/09/19 23:53 KFNT 192353Z 00000KT 10SM CLR 12/01 A3035 RMK AO2 SLP283 T01220011 10167 20106 56003 $
KMBS - Saginaw, Michigan, USA
Distance from station: SW 44mi, 70km
Updated: Sat, 19-Sep-2020 7:53pm EDT
Clear
Clear
 Wind from E
Wind: E 5 mph , 7 km/h
Temperature: 54°F , 12°C
Dew Point: 34°F , 1°C
Humidity: 47%
Barometer: 30.36 inHg , 1028.1 hPa
Clouds: Clear
Visibility: 10 miles , 16 km
2020/09/19 23:53 KMBS 192353Z AUTO 10004KT 10SM CLR 12/01 A3036 RMK AO2 SLP284 T01220011 10167 20122 56004
 
KDTW - Detroit/Wayne, Michigan, USA
Distance from station: SSE 117mi, 188km
Updated: Sat, 19-Sep-2020 7:53pm EDT
Partly cloudy
Partly cloudy
 Wind from S
Wind: S 7 mph , 11 km/h
Temperature: 55°F , 13°C
Dew Point: 36°F , 2°C
Humidity: 47%
Barometer: 30.35 inHg , 1027.8 hPa
Clouds: Partly cloudy
Visibility: 10 miles , 16 km
Cloud details: Partly cloudy 23000 ft
2020/09/19 23:53 KDTW 192353Z 17006KT 10SM SCT230 13/02 A3035 RMK AO2 SLP280 T01330017 10178 20133 56003
KP58 - Port Hope, Michigan, USA
Distance from station: ENE 30mi, 48km
Updated: Sat, 19-Sep-2020 7:51pm EDT

 Wind from SSE
Wind: SSE 3 mph , 6 km/h
Temperature: 50°F , 10°C
Dew Point: 39°F , 4°C
Humidity: 67%
Barometer: 30.36 inHg , 1028.1 hPa
2020/09/19 23:51 KP58 192351Z AUTO 16003KT 10/04 A3036 RMK AO1 SLP286 T01000039 10150 20100 56005
KCFS - Caro/Tuscola, Michigan, USA
Distance from station: S 31mi, 50km
Updated: Sat, 19-Sep-2020 8:15pm EDT
Clear
Clear
 Wind from calm
Wind: Calm
Temperature: 48°F , 9°C
Dew Point: 39°F , 4°C
Humidity: 71%
Barometer: 30.35 inHg , 1027.8 hPa
Clouds: Clear
Visibility: 10 miles , 16 km
2020/09/20 00:15 KCFS 200015Z AUTO 00000KT 10SM CLR 09/04 A3035 RMK AO2 T00850043
 
KPHN - Port Huron, Michigan, USA
Distance from station: SSE 81mi, 131km
Updated: Sat, 19-Sep-2020 8:15pm EDT
Clear
Clear
 Wind from calm
Wind: Calm
Temperature: 43°F , 6°C
Dew Point: 39°F , 4°C
Humidity: 87%
Barometer: 30.37 inHg , 1028.4 hPa
Clouds: Clear
Visibility: 10 miles , 16 km
2020/09/20 00:15 KPHN 200015Z AUTO 00000KT 10SM CLR 06/04 A3037 RMK AO2
KPTK - Pontiac, Michigan, USA
Distance from station: S 86mi, 138km
Updated: Sat, 19-Sep-2020 7:53pm EDT
Few Clouds
Few Clouds
 Wind from E
Wind: E 7 mph , 11 km/h
Temperature: 54°F , 12°C
Dew Point: 28°F , -2°C
Humidity: 38%
Barometer: 30.34 inHg , 1027.4 hPa
Clouds: Few Clouds
Visibility: 10 miles , 16 km
Cloud details: Few Clouds 23000 ft
2020/09/19 23:53 KPTK 192353Z 09006KT 10SM FEW230 12/M02 A3034 RMK AO2 SLP281 T01221022 10161 20117 53001
KMTC - Selfridge Angb, Michigan, USA
Distance from station: SSE 94mi, 151km
Updated: Sat, 19-Sep-2020 7:57pm EDT
Few Clouds
Few Clouds
 Wind from calm
Wind: Calm
Temperature: 54°F , 12°C
Dew Point: 32°F , 0°C
Humidity: 44%
Barometer: 30.34 inHg , 1027.4 hPa
Clouds: Few Clouds
Visibility: 10 miles , 16 km
Cloud details: Few Clouds 23000 ft
2020/09/19 23:57 KMTC 192357Z 00000KT 10SM FEW230 12/00 A3034 RMK AO2A SLP283 T01150003 10162 20114 57004 $